createdAt,value
2022-08-22T00:02:13.784Z,7.47
2022-08-22T00:03:12.560Z,6.73
2022-08-22T00:03:16.107Z,7.70
2022-08-22T00:05:35.964Z,7.47
2022-08-22T00:08:12.633Z,8.83
2022-08-22T00:11:14.446Z,6.80
2022-08-22T00:14:29.366Z,7.20
2022-08-22T00:17:24.056Z,7.20
2022-08-22T00:20:28.052Z,8.63
2022-08-22T00:23:08.036Z,7.53
2022-08-22T00:26:08.793Z,9.27
2022-08-22T00:28:42.406Z,7.70
2022-08-22T00:31:31.916Z,8.17
2022-08-22T00:34:30.395Z,8.17
2022-08-22T00:37:14.978Z,6.80
2022-08-22T00:40:03.254Z,7.60
2022-08-22T00:43:17.040Z,8.03
2022-08-22T00:46:40.164Z,6.77
2022-08-22T00:49:43.885Z,11.80
2022-08-22T00:52:55.056Z,8.60
2022-08-22T00:56:03.713Z,7.73
2022-08-22T00:58:49.518Z,9.10
2022-08-22T01:01:30.503Z,10.70
2022-08-22T01:04:38.601Z,9.10
2022-08-22T01:07:22.198Z,8.80
2022-08-22T01:10:28.481Z,9.17
2022-08-22T01:13:13.594Z,9.20
2022-08-22T01:15:42.867Z,8.50
2022-08-22T01:18:15.451Z,8.40
2022-08-22T01:20:54.353Z,8.57
2022-08-22T01:24:17.424Z,8.23
2022-08-22T01:27:36.807Z,8.50
2022-08-22T01:30:28.449Z,10.40
2022-08-22T01:33:38.733Z,9.40
2022-08-22T01:36:32.782Z,9.97
2022-08-22T01:39:31.222Z,9.27
2022-08-22T01:42:50.247Z,9.07
2022-08-22T01:45:51.048Z,9.63
2022-08-22T01:48:53.900Z,8.57
2022-08-22T01:51:58.570Z,9.00
2022-08-22T01:54:56.457Z,8.87
2022-08-22T01:57:24.981Z,8.63
2022-08-22T01:59:57.784Z,8.70
2022-08-22T02:03:08.190Z,8.93
2022-08-22T02:05:59.244Z,10.80
2022-08-22T02:08:44.794Z,8.43
2022-08-22T02:11:35.365Z,9.07
2022-08-22T02:14:32.799Z,8.90
2022-08-22T02:17:21.226Z,8.93
2022-08-22T02:20:17.506Z,8.87
2022-08-22T02:22:59.612Z,8.63
2022-08-22T02:25:45.185Z,7.90
2022-08-22T02:28:56.503Z,8.50
2022-08-22T02:31:49.360Z,7.93
2022-08-22T02:34:43.133Z,8.53
2022-08-22T02:37:42.372Z,8.87
2022-08-22T02:40:41.011Z,7.80
2022-08-22T02:43:28.141Z,8.13
2022-08-22T02:46:20.068Z,9.00
2022-08-22T02:49:15.812Z,8.50
2022-08-22T02:52:02.373Z,8.53
2022-08-22T02:54:45.312Z,8.20
2022-08-22T02:57:27.475Z,7.70
2022-08-22T03:00:30.910Z,7.93
2022-08-22T03:03:06.568Z,8.03
2022-08-22T03:05:36.382Z,7.33
2022-08-22T03:08:25.010Z,8.90
2022-08-22T03:11:19.533Z,8.57
2022-08-22T03:14:26.334Z,7.60
2022-08-22T03:17:06.482Z,8.10
2022-08-22T03:20:08.008Z,7.30
2022-08-22T03:23:07.520Z,8.80
2022-08-22T03:26:01.263Z,8.30
2022-08-22T03:28:59.191Z,8.10
2022-08-22T03:31:29.489Z,7.77
2022-08-22T03:34:21.417Z,7.47
2022-08-22T03:37:13.493Z,7.03
2022-08-22T03:40:08.217Z,7.70
2022-08-22T03:42:57.759Z,7.80
2022-08-22T03:45:44.728Z,7.60
2022-08-22T03:48:43.220Z,8.30
2022-08-22T03:52:10.177Z,8.83
2022-08-22T03:55:16.072Z,9.30
2022-08-22T03:58:27.739Z,7.53
2022-08-22T04:01:22.754Z,7.57
2022-08-22T04:04:10.742Z,7.87
2022-08-22T04:06:53.656Z,8.70
2022-08-22T04:09:54.439Z,9.48
2022-08-22T04:13:06.554Z,7.80
2022-08-22T04:16:20.761Z,8.13
2022-08-22T04:19:11.988Z,6.90
2022-08-22T04:22:24.827Z,14.50
2022-08-22T04:25:01.117Z,9.40
2022-08-22T04:28:11.742Z,5.23
2022-08-22T04:30:54.170Z,5.70
2022-08-22T04:33:32.258Z,5.57
2022-08-22T04:36:41.090Z,4.03
2022-08-22T04:39:20.362Z,3.87
2022-08-22T04:42:31.306Z,5.53
2022-08-22T04:45:10.696Z,8.40
2022-08-22T04:47:54.038Z,5.43
2022-08-22T04:50:35.016Z,5.50
2022-08-22T04:53:27.489Z,5.40
2022-08-22T04:56:11.615Z,5.10
2022-08-22T04:58:52.438Z,4.80
2022-08-22T05:01:47.324Z,4.73
2022-08-22T05:04:20.221Z,5.20
2022-08-22T05:06:54.392Z,5.13
2022-08-22T05:09:27.948Z,6.43
2022-08-22T05:12:09.075Z,6.17
2022-08-22T05:14:54.444Z,5.90
2022-08-22T05:17:27.492Z,5.93
2022-08-22T05:19:59.370Z,6.40
2022-08-22T05:22:37.710Z,6.30
2022-08-22T05:25:13.106Z,7.77
2022-08-22T05:27:48.227Z,10.70
2022-08-22T05:30:23.829Z,10.30
2022-08-22T05:33:04.370Z,10.03
2022-08-22T05:35:49.259Z,8.37
2022-08-22T05:38:28.565Z,12.03
2022-08-22T05:41:06.086Z,8.50
2022-08-22T05:43:41.498Z,10.10
2022-08-22T05:46:21.457Z,8.50
2022-08-22T05:49:00.253Z,11.00
2022-08-22T05:52:08.808Z,9.80
2022-08-22T05:54:58.418Z,11.10
2022-08-22T05:57:32.054Z,11.67
2022-08-22T06:00:21.719Z,9.67
2022-08-22T06:03:16.081Z,9.63
2022-08-22T06:05:52.287Z,10.13
2022-08-22T06:08:40.311Z,11.10
2022-08-22T06:11:18.346Z,11.80
2022-08-22T06:13:58.458Z,10.03
2022-08-22T06:16:51.677Z,9.80
2022-08-22T06:19:20.279Z,11.83
2022-08-22T06:21:52.416Z,10.40
2022-08-22T06:24:25.260Z,9.60
2022-08-22T06:26:58.276Z,10.97
2022-08-22T06:29:49.265Z,13.00
2022-08-22T06:32:31.562Z,10.90
2022-08-22T06:35:28.511Z,9.70
2022-08-22T06:38:01.375Z,10.50
2022-08-22T06:40:29.734Z,10.60
2022-08-22T06:42:58.844Z,10.13
2022-08-22T06:45:31.804Z,10.50
2022-08-22T06:48:08.438Z,8.43
2022-08-22T06:50:37.154Z,10.67
2022-08-22T06:53:19.776Z,8.60
2022-08-22T06:55:54.755Z,9.57
2022-08-22T06:58:46.626Z,7.67
2022-08-22T07:01:19.742Z,9.30
2022-08-22T07:03:54.737Z,7.07
2022-08-22T07:06:50.007Z,11.00
2022-08-22T07:09:32.526Z,7.03
2022-08-22T07:12:04.687Z,11.33
2022-08-22T07:14:43.154Z,12.57
2022-08-22T07:17:24.388Z,10.47
2022-08-22T07:20:35.098Z,10.90
2022-08-22T07:23:09.095Z,8.83
2022-08-22T07:26:31.564Z,10.60
2022-08-22T07:29:32.569Z,9.37
2022-08-22T07:32:13.966Z,8.00
2022-08-22T07:34:56.760Z,8.90
2022-08-22T07:37:43.411Z,8.20
2022-08-22T07:40:27.483Z,10.43
2022-08-22T07:43:32.862Z,8.13
2022-08-22T07:46:16.325Z,9.50
2022-08-22T07:49:08.229Z,10.57
2022-08-22T07:51:59.843Z,7.20
2022-08-22T07:54:46.973Z,8.00
2022-08-22T07:57:26.663Z,7.53
2022-08-22T07:59:56.877Z,10.97
2022-08-22T08:02:25.138Z,7.10
2022-08-22T08:04:55.352Z,7.60
2022-08-22T08:07:27.741Z,8.87
2022-08-22T08:10:11.120Z,7.03
2022-08-22T08:13:01.941Z,7.23
2022-08-22T08:15:34.682Z,6.90
2022-08-22T08:18:11.228Z,8.97
2022-08-22T08:20:39.170Z,9.40
2022-08-22T08:23:10.232Z,7.60
2022-08-22T08:26:24.598Z,7.03
2022-08-22T08:28:55.934Z,7.53
2022-08-22T08:31:38.203Z,6.57
2022-08-22T08:34:23.099Z,16.60
2022-08-22T08:36:56.541Z,12.57
2022-08-22T08:39:43.250Z,7.10
2022-08-22T08:43:06.266Z,7.60
2022-08-22T08:46:02.637Z,7.23
2022-08-22T08:49:06.658Z,7.07
2022-08-22T08:51:58.876Z,7.57
2022-08-22T08:55:19.610Z,7.30
2022-08-22T08:58:34.369Z,8.03
2022-08-22T09:01:34.180Z,8.03
2022-08-22T09:04:57.323Z,7.73
2022-08-22T09:07:59.824Z,6.50
2022-08-22T09:11:15.189Z,8.83
2022-08-22T09:14:02.008Z,7.73
2022-08-22T09:17:13.799Z,6.13
2022-08-22T09:20:17.719Z,6.07
2022-08-22T09:23:37.148Z,7.23
2022-08-22T09:26:17.062Z,7.53
2022-08-22T09:29:18.183Z,7.60
2022-08-22T09:32:07.423Z,10.60
2022-08-22T09:34:56.812Z,7.40
2022-08-22T09:37:36.272Z,5.83
2022-08-22T09:43:13.208Z,4.77
2022-08-22T09:46:29.439Z,5.73
2022-08-22T09:49:52.328Z,4.60
2022-08-22T09:53:18.590Z,4.80
2022-08-22T09:56:15.258Z,3.93
2022-08-22T09:59:17.283Z,5.97
2022-08-22T10:02:02.812Z,4.13
2022-08-22T10:04:56.565Z,8.50
2022-08-22T10:07:56.049Z,5.93
2022-08-22T10:10:56.696Z,9.27
2022-08-22T10:13:32.681Z,4.20
2022-08-22T10:16:37.064Z,3.83
2022-08-22T10:19:31.934Z,4.70
2022-08-22T10:22:29.876Z,3.63
2022-08-22T10:25:31.228Z,3.90
2022-08-22T10:28:16.049Z,5.73
2022-08-22T10:31:51.075Z,4.37
2022-08-22T10:34:35.221Z,4.67
2022-08-22T10:37:30.220Z,4.83
2022-08-22T10:40:30.325Z,3.30
2022-08-22T10:43:16.887Z,4.10
2022-08-22T10:45:49.056Z,6.23
2022-08-22T10:48:22.448Z,4.03
2022-08-22T10:50:58.000Z,3.50
2022-08-22T10:53:46.841Z,4.27
2022-08-22T10:56:29.557Z,4.50
2022-08-22T10:59:24.327Z,2.80
2022-08-22T11:02:36.158Z,5.07
2022-08-22T11:05:41.922Z,3.97
2022-08-22T11:08:41.221Z,3.80
2022-08-22T11:11:19.234Z,3.17
2022-08-22T11:14:19.828Z,4.60
2022-08-22T11:17:28.833Z,4.07
2022-08-22T11:20:36.217Z,3.60
2022-08-22T11:23:56.458Z,4.53
2022-08-22T11:26:46.690Z,3.20
2022-08-22T11:29:55.328Z,3.50
2022-08-22T11:32:59.570Z,3.23
2022-08-22T11:35:54.913Z,5.10
2022-08-22T11:38:57.290Z,3.63
2022-08-22T11:41:31.441Z,6.23
2022-08-22T11:44:07.824Z,3.10
2022-08-22T11:46:48.078Z,3.63
2022-08-22T11:49:39.373Z,4.80
2022-08-22T11:52:15.353Z,3.10
2022-08-22T11:54:54.250Z,2.70
2022-08-22T11:57:37.833Z,4.20
2022-08-22T12:00:23.930Z,3.40
2022-08-22T12:03:23.226Z,2.37
2022-08-22T12:06:17.553Z,3.50
2022-08-22T12:08:49.634Z,4.67
2022-08-22T12:12:13.271Z,2.30
2022-08-22T12:15:11.597Z,3.07
2022-08-22T12:18:21.200Z,2.60
2022-08-22T12:21:21.475Z,2.50
2022-08-22T12:24:20.864Z,2.70
2022-08-22T12:27:28.744Z,3.80
2022-08-22T12:30:13.846Z,2.53
2022-08-22T12:33:23.415Z,5.57
2022-08-22T12:36:28.861Z,4.47
2022-08-22T12:39:27.464Z,3.40
2022-08-22T12:42:22.221Z,2.63
2022-08-22T12:45:12.681Z,2.20
2022-08-22T12:48:14.776Z,3.03
2022-08-22T12:51:22.480Z,2.93
2022-08-22T12:54:21.105Z,7.17
2022-08-22T12:57:00.638Z,2.60
2022-08-22T12:59:42.338Z,2.60
2022-08-22T13:02:35.047Z,3.90
2022-08-22T13:05:19.604Z,2.33
2022-08-22T13:08:05.166Z,3.07
2022-08-22T13:10:47.541Z,3.03
2022-08-22T13:14:00.214Z,3.27
2022-08-22T13:16:49.014Z,2.53
2022-08-22T13:19:23.948Z,4.80
2022-08-22T13:22:19.631Z,2.97
2022-08-22T13:24:57.006Z,2.53
2022-08-22T13:27:39.820Z,2.27
2022-08-22T13:30:34.718Z,2.83
2022-08-22T13:33:35.465Z,6.00
2022-08-22T13:36:08.089Z,2.80
2022-08-22T13:38:56.426Z,7.07
2022-08-22T13:41:33.180Z,4.83
2022-08-22T13:44:08.610Z,2.30
2022-08-22T13:46:48.157Z,5.47
2022-08-22T13:49:43.150Z,3.77
2022-08-22T13:52:31.368Z,3.33
2022-08-22T13:55:30.105Z,2.93
2022-08-22T13:58:02.770Z,3.17
2022-08-22T14:01:25.583Z,4.50
2022-08-22T14:04:28.296Z,2.20
2022-08-22T14:07:04.968Z,2.50
2022-08-22T14:09:58.018Z,4.17
2022-08-22T14:12:50.755Z,3.77
2022-08-22T14:15:44.634Z,2.30
2022-08-22T14:18:18.788Z,2.50
2022-08-22T14:20:50.748Z,3.03
2022-08-22T14:23:29.107Z,2.43
2022-08-22T14:25:57.334Z,2.60
2022-08-22T14:28:33.372Z,2.87
2022-08-22T14:31:13.303Z,3.13
2022-08-22T14:33:56.385Z,4.73
2022-08-22T14:36:40.338Z,3.13
2022-08-22T14:39:42.837Z,4.53
2022-08-22T14:42:44.384Z,4.07
2022-08-22T14:45:29.165Z,6.17
2022-08-22T14:48:30.871Z,3.03
2022-08-22T14:51:30.061Z,2.80
2022-08-22T14:54:23.497Z,5.50
2022-08-22T14:57:04.260Z,4.97
2022-08-22T15:00:02.921Z,5.30
2022-08-22T15:02:53.407Z,3.60
2022-08-22T15:05:22.771Z,5.63
2022-08-22T15:08:00.876Z,2.30
2022-08-22T15:10:41.900Z,3.87
2022-08-22T15:13:12.387Z,3.27
2022-08-22T15:16:22.194Z,2.53
2022-08-22T15:18:51.783Z,2.87
2022-08-22T15:21:31.755Z,2.67
2022-08-22T15:24:06.536Z,4.10
2022-08-22T15:26:40.407Z,4.37
2022-08-22T15:29:20.337Z,3.03
2022-08-22T15:31:52.368Z,3.60
2022-08-22T15:34:39.989Z,4.60
2022-08-22T15:37:22.726Z,3.33
2022-08-22T15:40:12.044Z,3.30
2022-08-22T15:42:58.995Z,2.10
2022-08-22T15:45:37.316Z,2.90
2022-08-22T15:48:36.157Z,3.10
2022-08-22T15:51:15.994Z,3.77
2022-08-22T15:54:03.217Z,3.00
2022-08-22T15:57:24.883Z,2.93
2022-08-22T16:00:28.027Z,4.90
2022-08-22T16:03:12.195Z,2.70
2022-08-22T16:06:11.741Z,2.63
2022-08-22T16:08:57.516Z,3.43
2022-08-22T16:11:38.007Z,3.57
2022-08-22T16:17:43.906Z,2.57
2022-08-22T16:20:19.760Z,2.97
2022-08-22T16:22:56.526Z,3.50
2022-08-22T16:26:34.720Z,4.10
2022-08-22T16:29:05.511Z,4.60
2022-08-22T16:31:47.543Z,3.60
2022-08-22T16:34:20.384Z,2.50
2022-08-22T16:37:05.856Z,3.03
2022-08-22T16:39:51.392Z,3.63
2022-08-22T16:42:24.275Z,2.40
2022-08-22T16:45:05.203Z,4.00
2022-08-22T16:47:41.792Z,2.83
2022-08-22T16:50:18.582Z,3.77
2022-08-22T16:53:20.626Z,2.37
2022-08-22T16:56:18.643Z,3.17
2022-08-22T16:59:03.326Z,5.00
2022-08-22T17:02:35.520Z,3.87
2022-08-22T17:05:38.738Z,4.33
2022-08-22T17:08:59.802Z,2.83
2022-08-22T17:11:47.184Z,3.30
2022-08-22T17:14:35.428Z,2.90
2022-08-22T17:17:30.186Z,5.33
2022-08-22T17:20:34.455Z,3.93
2022-08-22T17:23:41.996Z,3.20
2022-08-22T17:26:39.744Z,3.27
2022-08-22T17:29:32.895Z,2.60
2022-08-22T17:32:37.988Z,2.50
2022-08-22T17:35:24.214Z,6.70
2022-08-22T17:38:23.009Z,6.53
2022-08-22T17:41:00.931Z,4.83
2022-08-22T17:43:49.854Z,2.30
2022-08-22T17:46:52.774Z,4.73
2022-08-22T17:49:30.558Z,4.37
2022-08-22T17:52:01.464Z,2.90
2022-08-22T17:54:45.338Z,5.87
2022-08-22T17:57:34.602Z,3.07
2022-08-22T18:00:12.765Z,9.30
2022-08-22T18:02:59.165Z,4.10
2022-08-22T18:05:50.696Z,9.40
2022-08-22T18:09:13.437Z,3.20
2022-08-22T18:11:53.170Z,3.73
2022-08-22T18:14:47.757Z,4.13
2022-08-22T18:17:32.567Z,6.83
2022-08-22T18:20:25.413Z,7.03
2022-08-22T18:23:36.073Z,5.73
2022-08-22T18:26:47.338Z,8.20
2022-08-22T18:29:25.855Z,4.80
2022-08-22T18:32:04.677Z,5.17
2022-08-22T18:34:45.933Z,4.43
2022-08-22T18:37:21.429Z,5.10
2022-08-22T18:40:26.056Z,4.93
2022-08-22T18:43:07.555Z,4.60
2022-08-22T18:45:46.755Z,10.80
2022-08-22T18:48:28.781Z,7.73
2022-08-22T18:51:24.822Z,5.90
2022-08-22T18:54:55.052Z,5.60
2022-08-22T18:57:47.161Z,5.93
2022-08-22T19:00:17.255Z,6.67
2022-08-22T19:03:27.987Z,5.70
2022-08-22T19:06:33.178Z,6.83
2022-08-22T19:09:48.713Z,5.67
2022-08-22T19:12:22.970Z,8.50
2022-08-22T19:15:26.582Z,7.57
2022-08-22T19:18:17.381Z,8.23
2022-08-22T19:21:32.138Z,7.93
2022-08-22T19:23:59.698Z,6.73
2022-08-22T19:26:39.793Z,6.60
2022-08-22T19:29:18.234Z,7.23
2022-08-22T19:31:58.332Z,6.00
2022-08-22T19:34:28.569Z,6.17
2022-08-22T19:37:30.879Z,6.33
2022-08-22T19:40:09.193Z,6.03
2022-08-22T19:42:39.459Z,6.97
2022-08-22T19:45:06.517Z,7.10
2022-08-22T19:47:40.851Z,7.90
2022-08-22T19:50:24.919Z,7.00
2022-08-22T19:53:24.459Z,6.67
2022-08-22T19:56:29.357Z,5.07
2022-08-22T19:59:24.236Z,6.30
2022-08-22T20:02:35.557Z,5.37
2022-08-22T20:05:17.734Z,6.77
2022-08-22T20:08:12.521Z,4.77
2022-08-22T20:11:05.224Z,5.97
2022-08-22T20:13:35.592Z,6.30
2022-08-22T20:16:13.509Z,5.10
2022-08-22T20:19:08.920Z,5.20
2022-08-22T20:21:43.978Z,5.33
2022-08-22T20:24:28.952Z,5.20
2022-08-22T20:27:13.320Z,6.73
2022-08-22T20:29:51.656Z,4.13
2022-08-22T20:32:23.011Z,4.50
2022-08-22T20:34:57.200Z,4.40
2022-08-22T20:38:05.763Z,6.53
2022-08-22T20:40:55.587Z,4.97
2022-08-22T20:43:49.590Z,4.77
2022-08-22T20:46:44.035Z,4.80
2022-08-22T20:49:22.582Z,5.50
2022-08-22T20:52:01.129Z,5.37
2022-08-22T20:54:33.489Z,6.07
2022-08-22T20:57:16.971Z,6.67
2022-08-22T21:00:16.809Z,5.87
2022-08-22T21:03:07.330Z,7.20
2022-08-22T21:05:41.277Z,6.15
2022-08-22T21:08:21.738Z,6.70
2022-08-22T21:11:21.526Z,5.27
2022-08-22T21:13:48.828Z,5.57
2022-08-22T21:16:33.562Z,5.53
2022-08-22T21:19:04.027Z,5.77
2022-08-22T21:21:35.127Z,7.67
2022-08-22T21:24:08.186Z,5.53
2022-08-22T21:26:59.362Z,6.23
2022-08-22T21:29:32.847Z,7.90
2022-08-22T21:32:43.515Z,5.07
2022-08-22T21:35:32.449Z,5.27
2022-08-22T21:38:01.149Z,6.40
2022-08-22T21:40:36.277Z,5.00
2022-08-22T21:43:28.700Z,5.13
2022-08-22T21:45:56.006Z,5.40
2022-08-22T21:48:46.449Z,6.53
2022-08-22T21:51:42.696Z,5.93
2022-08-22T21:54:28.351Z,6.80
2022-08-22T21:57:15.913Z,5.03
2022-08-22T21:59:59.675Z,7.40
2022-08-22T22:02:40.569Z,5.70
2022-08-22T22:05:15.893Z,6.27
2022-08-22T22:07:46.814Z,8.77
2022-08-22T22:10:18.168Z,5.43
2022-08-22T22:12:47.636Z,5.90
2022-08-22T22:15:18.870Z,4.90
2022-08-22T22:17:46.087Z,6.33
2022-08-22T22:20:16.205Z,9.73
2022-08-22T22:22:46.317Z,5.87
2022-08-22T22:25:40.570Z,5.73
2022-08-22T22:28:08.214Z,5.40
2022-08-22T22:30:35.904Z,5.53
2022-08-22T22:33:02.855Z,6.03
2022-08-22T22:35:30.944Z,5.47
2022-08-22T22:37:57.962Z,5.90
2022-08-22T22:40:25.075Z,6.73
2022-08-22T22:42:52.088Z,5.80
2022-08-22T22:45:19.097Z,6.10
2022-08-22T22:47:45.990Z,5.47
2022-08-22T22:50:13.114Z,7.07
2022-08-22T22:52:40.783Z,5.80
2022-08-22T22:55:09.461Z,5.70
2022-08-22T22:57:46.798Z,4.77
2022-08-22T23:00:15.005Z,5.20
2022-08-22T23:02:42.972Z,4.97
2022-08-22T23:05:11.130Z,4.33
2022-08-22T23:07:39.202Z,4.13
2022-08-22T23:10:08.712Z,3.80
2022-08-22T23:12:37.221Z,5.07
2022-08-22T23:15:06.800Z,4.63
2022-08-22T23:17:35.263Z,4.20
2022-08-22T23:20:02.614Z,4.83
2022-08-22T23:22:30.182Z,9.20
2022-08-22T23:24:57.260Z,5.00
2022-08-22T23:27:24.222Z,4.17
2022-08-22T23:29:51.349Z,4.80
2022-08-22T23:32:18.773Z,4.60
2022-08-22T23:34:48.654Z,3.77
2022-08-22T23:37:20.391Z,4.60
2022-08-22T23:39:48.085Z,4.70
2022-08-22T23:42:16.089Z,4.30
2022-08-22T23:44:45.195Z,5.90
2022-08-22T23:47:14.642Z,4.20
2022-08-22T23:49:42.644Z,4.20
2022-08-22T23:52:12.006Z,4.83
2022-08-22T23:54:39.146Z,4.30
2022-08-22T23:57:11.416Z,5.00
2022-08-22T23:59:44.651Z,5.20
